createdAt,value
2018-12-15T00:00:30.341Z,17.74
2018-12-15T00:01:03.373Z,17.71
2018-12-15T00:01:36.272Z,17.70
2018-12-15T00:02:09.406Z,17.72
2018-12-15T00:02:42.470Z,17.72
2018-12-15T00:03:15.424Z,17.74
2018-12-15T00:03:48.316Z,17.69
2018-12-15T00:04:21.049Z,17.68
2018-12-15T00:04:54.384Z,17.69
2018-12-15T00:05:27.265Z,17.68
2018-12-15T00:06:00.149Z,17.67
2018-12-15T00:06:33.007Z,17.67
2018-12-15T00:07:05.972Z,17.67
2018-12-15T00:07:38.834Z,17.69
2018-12-15T00:08:11.527Z,17.73
2018-12-15T00:08:44.715Z,17.71
2018-12-15T00:09:17.799Z,17.71
2018-12-15T00:09:51.098Z,17.71
2018-12-15T00:10:23.578Z,17.74
2018-12-15T00:10:56.658Z,17.73
2018-12-15T00:11:29.604Z,17.71
2018-12-15T00:12:02.386Z,17.68
2018-12-15T00:12:35.267Z,17.69
2018-12-15T00:13:08.259Z,17.69
2018-12-15T00:13:41.089Z,17.68
2018-12-15T00:14:14.194Z,17.66
2018-12-15T00:14:47.010Z,17.68
2018-12-15T00:15:19.742Z,17.72
2018-12-15T00:15:52.382Z,17.74
2018-12-15T00:16:25.361Z,17.72
2018-12-15T00:16:58.176Z,17.70
2018-12-15T00:17:31.106Z,17.70
2018-12-15T00:18:03.868Z,17.70
2018-12-15T00:18:36.557Z,17.71
2018-12-15T00:19:09.376Z,17.72
2018-12-15T00:19:42.158Z,17.71
2018-12-15T00:20:14.904Z,17.70
2018-12-15T00:20:47.676Z,17.68
2018-12-15T00:21:20.515Z,17.67
2018-12-15T00:21:53.587Z,17.71
2018-12-15T00:22:26.526Z,17.76
2018-12-15T00:22:59.396Z,17.76
2018-12-15T00:23:32.337Z,17.74
2018-12-15T00:24:05.068Z,17.73
2018-12-15T00:24:37.938Z,17.75
2018-12-15T00:25:11.256Z,17.72
2018-12-15T00:25:44.467Z,17.74
2018-12-15T00:26:17.343Z,17.72
2018-12-15T00:26:50.150Z,17.74
2018-12-15T00:27:22.982Z,17.73
2018-12-15T00:27:55.979Z,17.72
2018-12-15T00:28:28.796Z,17.71
2018-12-15T00:29:01.700Z,17.70
2018-12-15T00:29:34.749Z,17.71
2018-12-15T00:30:07.648Z,17.70
2018-12-15T00:30:40.723Z,17.70
2018-12-15T00:31:13.664Z,17.73
2018-12-15T00:31:46.779Z,17.73
2018-12-15T00:32:20.680Z,17.71
2018-12-15T00:32:53.435Z,17.70
2018-12-15T00:33:26.272Z,17.70
2018-12-15T00:33:59.280Z,17.68
2018-12-15T00:34:32.472Z,17.70
2018-12-15T00:35:05.486Z,17.70
2018-12-15T00:35:38.066Z,17.74
2018-12-15T00:36:10.678Z,17.75
2018-12-15T00:36:43.493Z,17.74
2018-12-15T00:37:16.562Z,17.75
2018-12-15T00:37:49.573Z,17.73
2018-12-15T00:38:22.404Z,17.71
2018-12-15T00:38:55.185Z,17.73
2018-12-15T00:39:28.072Z,17.70
2018-12-15T00:40:00.775Z,17.72
2018-12-15T00:40:33.742Z,17.71
2018-12-15T00:41:06.564Z,17.70
2018-12-15T00:41:39.806Z,17.67
2018-12-15T00:42:12.474Z,17.65
2018-12-15T00:42:45.271Z,17.67
2018-12-15T00:43:18.378Z,17.67
2018-12-15T00:43:51.345Z,17.70
2018-12-15T00:44:24.420Z,17.71
2018-12-15T00:44:57.458Z,17.71
2018-12-15T00:45:30.444Z,17.71
2018-12-15T00:46:03.389Z,17.69
2018-12-15T00:46:36.293Z,17.71
2018-12-15T00:47:13.814Z,17.69
2018-12-15T00:47:43.898Z,17.69
2018-12-15T00:48:16.584Z,17.70
2018-12-15T00:48:49.520Z,17.70
2018-12-15T00:49:22.451Z,17.70
2018-12-15T00:49:55.138Z,17.67
2018-12-15T00:50:28.283Z,17.64
2018-12-15T00:51:00.971Z,17.67
2018-12-15T00:51:34.164Z,17.68
2018-12-15T00:52:07.550Z,17.68
2018-12-15T00:52:40.708Z,17.70
2018-12-15T00:53:13.404Z,17.70
2018-12-15T00:53:46.711Z,17.69
2018-12-15T00:54:19.588Z,17.69
2018-12-15T00:54:52.334Z,17.67
2018-12-15T00:55:25.351Z,17.70
2018-12-15T00:55:58.082Z,17.70
2018-12-15T00:56:31.207Z,17.73
2018-12-15T00:57:04.209Z,17.71
2018-12-15T00:57:37.015Z,17.69
2018-12-15T00:58:09.767Z,17.67
2018-12-15T00:58:42.639Z,17.69
2018-12-15T00:59:15.530Z,17.67
2018-12-15T00:59:48.363Z,17.69
2018-12-15T01:00:21.374Z,17.69
2018-12-15T01:00:54.451Z,17.69
2018-12-15T01:01:27.486Z,17.67
2018-12-15T01:02:00.299Z,17.66
2018-12-15T01:02:32.990Z,17.67
2018-12-15T01:03:05.827Z,17.69
2018-12-15T01:03:38.535Z,17.73
2018-12-15T01:04:11.474Z,17.74
2018-12-15T01:04:44.364Z,17.71
2018-12-15T01:05:17.242Z,17.69
2018-12-15T01:05:50.327Z,17.69
2018-12-15T01:06:23.034Z,17.68
2018-12-15T01:06:56.089Z,17.72
2018-12-15T01:07:28.724Z,17.71
2018-12-15T01:08:01.963Z,17.71
2018-12-15T01:08:35.080Z,17.70
2018-12-15T01:09:07.918Z,17.71
2018-12-15T01:09:40.900Z,17.69
2018-12-15T01:10:13.903Z,17.72
2018-12-15T01:10:46.803Z,17.71
2018-12-15T01:11:19.580Z,17.72
2018-12-15T01:11:53.475Z,17.72
2018-12-15T01:12:26.326Z,17.70
2018-12-15T01:12:59.359Z,17.70
2018-12-15T01:13:32.242Z,17.70
2018-12-15T01:14:05.231Z,17.70
2018-12-15T01:14:38.118Z,17.66
2018-12-15T01:15:10.886Z,17.65
2018-12-15T01:15:44.040Z,17.64
2018-12-15T01:16:16.878Z,17.66
2018-12-15T01:16:49.816Z,17.66
2018-12-15T01:17:22.603Z,17.66
2018-12-15T01:17:55.230Z,17.67
2018-12-15T01:18:28.036Z,17.66
2018-12-15T01:19:00.943Z,17.70
2018-12-15T01:19:34.066Z,17.70
2018-12-15T01:20:06.905Z,17.72
2018-12-15T01:20:39.582Z,17.71
2018-12-15T01:21:12.223Z,17.74
2018-12-15T01:21:45.080Z,17.70
2018-12-15T01:22:17.927Z,17.73
2018-12-15T01:22:50.862Z,17.73
2018-12-15T01:23:23.742Z,17.67
2018-12-15T01:23:56.287Z,17.67
2018-12-15T01:24:29.426Z,17.67
2018-12-15T01:25:02.448Z,17.68
2018-12-15T01:25:35.314Z,17.67
2018-12-15T01:26:08.019Z,17.66
2018-12-15T01:26:41.060Z,17.70
2018-12-15T01:27:51.307Z,17.69
2018-12-15T01:28:24.220Z,17.71
2018-12-15T01:28:56.951Z,17.70
2018-12-15T01:29:29.808Z,17.68
2018-12-15T01:30:03.307Z,17.67
2018-12-15T01:30:36.494Z,17.66
2018-12-15T01:31:09.483Z,17.66
2018-12-15T01:31:42.505Z,17.70
2018-12-15T01:32:15.433Z,17.70
2018-12-15T01:32:48.351Z,17.69
2018-12-15T01:33:21.197Z,17.70
2018-12-15T01:33:54.203Z,17.74
2018-12-15T01:34:27.464Z,17.71
2018-12-15T01:35:00.506Z,17.70
2018-12-15T01:35:33.370Z,17.68
2018-12-15T01:36:06.559Z,17.67
2018-12-15T01:36:39.458Z,17.66
2018-12-15T01:37:12.659Z,17.67
2018-12-15T01:37:45.608Z,17.67
2018-12-15T01:38:18.610Z,17.67
2018-12-15T01:38:51.928Z,17.67
2018-12-15T01:39:24.778Z,17.67
2018-12-15T01:39:58.088Z,17.68
2018-12-15T01:40:31.359Z,17.71
2018-12-15T01:41:04.186Z,17.70
2018-12-15T01:41:37.178Z,17.69
2018-12-15T01:42:09.937Z,17.65
2018-12-15T01:42:42.638Z,17.66
2018-12-15T01:43:15.585Z,17.66
2018-12-15T01:43:48.900Z,17.65
2018-12-15T01:44:21.806Z,17.68
2018-12-15T01:44:54.754Z,17.67
2018-12-15T01:45:27.937Z,17.68
2018-12-15T01:46:00.943Z,17.67
2018-12-15T01:46:34.323Z,17.69
2018-12-15T01:47:07.278Z,17.67
2018-12-15T01:47:40.393Z,17.64
2018-12-15T01:48:13.502Z,17.66
2018-12-15T01:48:46.514Z,17.64
2018-12-15T01:49:19.322Z,17.64
2018-12-15T01:49:52.192Z,17.65
2018-12-15T01:50:25.141Z,17.68
2018-12-15T01:50:58.183Z,17.70
2018-12-15T01:51:31.263Z,17.69
2018-12-15T01:52:04.351Z,17.69
2018-12-15T01:52:37.309Z,17.69
2018-12-15T01:53:10.620Z,17.68
2018-12-15T01:53:43.613Z,17.65
2018-12-15T01:54:16.698Z,17.69
2018-12-15T01:54:49.573Z,17.70
2018-12-15T01:55:22.449Z,17.68
2018-12-15T01:55:55.408Z,17.68
2018-12-15T01:56:28.516Z,17.68
2018-12-15T01:57:01.309Z,17.71
2018-12-15T01:57:34.196Z,17.69
2018-12-15T01:58:07.153Z,17.67
2018-12-15T01:58:40.006Z,17.69
2018-12-15T01:59:13.035Z,17.69
2018-12-15T01:59:46.007Z,17.67
2018-12-15T02:00:19.036Z,17.65
2018-12-15T02:00:52.030Z,17.66
2018-12-15T02:01:25.292Z,17.68
2018-12-15T02:01:58.205Z,17.70
2018-12-15T02:02:31.396Z,17.69
2018-12-15T02:03:04.435Z,17.68
2018-12-15T02:03:37.436Z,17.67
2018-12-15T02:04:10.829Z,17.64
2018-12-15T02:04:43.568Z,17.66
2018-12-15T02:05:16.514Z,17.65
2018-12-15T02:05:49.296Z,17.61
2018-12-15T02:06:22.515Z,17.61
2018-12-15T02:06:55.570Z,17.64
2018-12-15T02:07:28.665Z,17.64
2018-12-15T02:08:01.656Z,17.65
2018-12-15T02:08:34.783Z,17.67
2018-12-15T02:09:07.956Z,17.69
2018-12-15T02:09:41.075Z,17.68
2018-12-15T02:10:13.897Z,17.66
2018-12-15T02:10:46.948Z,17.67
2018-12-15T02:11:20.073Z,17.67
2018-12-15T02:11:53.706Z,17.67
2018-12-15T02:12:26.833Z,17.67
2018-12-15T02:12:59.684Z,17.63
2018-12-15T02:13:32.503Z,17.64
2018-12-15T02:14:05.113Z,17.64
2018-12-15T02:14:38.163Z,17.65
2018-12-15T02:15:11.241Z,17.65
2018-12-15T02:15:44.313Z,17.64
2018-12-15T02:16:17.432Z,17.61
2018-12-15T02:16:50.208Z,17.62
2018-12-15T02:17:23.067Z,17.63
2018-12-15T02:17:55.604Z,17.63
2018-12-15T02:18:28.470Z,17.66
2018-12-15T02:19:01.360Z,17.67
2018-12-15T02:19:34.792Z,17.67
2018-12-15T02:20:07.670Z,17.66
2018-12-15T02:20:40.685Z,17.68
2018-12-15T02:21:13.638Z,17.67
2018-12-15T02:21:46.885Z,17.67
2018-12-15T02:22:19.822Z,17.67
2018-12-15T02:22:52.970Z,17.66
2018-12-15T02:23:26.100Z,17.69
2018-12-15T02:23:59.609Z,17.68
2018-12-15T02:24:32.559Z,17.64
2018-12-15T02:25:05.291Z,17.63
2018-12-15T02:25:38.321Z,17.64
2018-12-15T02:26:11.001Z,17.64
2018-12-15T02:26:44.103Z,17.65
2018-12-15T02:27:17.088Z,17.64
2018-12-15T02:27:50.399Z,17.65
2018-12-15T02:28:23.254Z,17.66
2018-12-15T02:28:56.368Z,17.66
2018-12-15T02:29:29.507Z,17.67
2018-12-15T02:30:02.440Z,17.67
2018-12-15T02:30:35.235Z,17.67
2018-12-15T02:31:08.339Z,17.67
2018-12-15T02:31:40.849Z,17.65
2018-12-15T02:32:13.760Z,17.64
2018-12-15T02:32:46.739Z,17.63
2018-12-15T02:33:19.617Z,17.63
2018-12-15T02:33:52.983Z,17.65
2018-12-15T02:34:26.189Z,17.66
2018-12-15T02:34:58.458Z,17.67
2018-12-15T02:35:30.608Z,17.67
2018-12-15T02:36:02.885Z,17.64
2018-12-15T02:36:35.099Z,17.65
2018-12-15T02:37:07.846Z,17.65
2018-12-15T02:37:40.779Z,17.64
2018-12-15T02:38:13.496Z,17.67
2018-12-15T02:38:46.497Z,17.69
2018-12-15T02:39:19.509Z,17.67
2018-12-15T02:39:52.567Z,17.65
2018-12-15T02:40:25.350Z,17.66
2018-12-15T02:40:58.153Z,17.68
2018-12-15T02:41:30.823Z,17.66
2018-12-15T02:42:03.592Z,17.66
2018-12-15T02:42:36.523Z,17.66
2018-12-15T02:43:09.449Z,17.65
2018-12-15T02:43:42.661Z,17.65
2018-12-15T02:44:15.475Z,17.67
2018-12-15T02:44:48.447Z,17.67
2018-12-15T02:45:21.146Z,17.69
2018-12-15T02:45:54.305Z,17.67
2018-12-15T02:46:27.353Z,17.66
2018-12-15T02:46:59.898Z,17.64
2018-12-15T02:47:33.168Z,17.65
2018-12-15T02:48:06.047Z,17.67
2018-12-15T02:48:38.927Z,17.66
2018-12-15T02:49:11.957Z,17.67
2018-12-15T02:49:44.985Z,17.66
2018-12-15T02:50:18.106Z,17.68
2018-12-15T02:50:51.041Z,17.68
2018-12-15T02:51:23.995Z,17.68
2018-12-15T02:51:56.789Z,17.66
2018-12-15T02:52:29.518Z,17.65
2018-12-15T02:53:02.463Z,17.66
2018-12-15T02:53:35.307Z,17.67
2018-12-15T02:54:08.203Z,17.64
2018-12-15T02:54:41.050Z,17.65
2018-12-15T02:55:14.658Z,17.65
2018-12-15T02:55:47.796Z,17.64
2018-12-15T02:56:20.553Z,17.64
2018-12-15T02:56:53.564Z,17.65
2018-12-15T02:57:26.395Z,17.65
2018-12-15T02:57:59.215Z,17.66
2018-12-15T02:58:32.036Z,17.63
2018-12-15T02:59:05.034Z,17.63
2018-12-15T02:59:37.480Z,17.64
2018-12-15T03:00:10.413Z,17.65
2018-12-15T03:00:43.323Z,17.61
2018-12-15T03:01:16.223Z,17.64
2018-12-15T03:01:49.083Z,17.64
2018-12-15T03:02:21.866Z,17.68
2018-12-15T03:02:55.142Z,17.68
2018-12-15T03:03:28.221Z,17.67
2018-12-15T03:04:01.425Z,17.64
2018-12-15T03:04:34.633Z,17.63
2018-12-15T03:05:07.818Z,17.67
2018-12-15T03:05:40.932Z,17.67
2018-12-15T03:06:13.991Z,17.70
2018-12-15T03:06:46.782Z,17.68
2018-12-15T03:07:19.653Z,17.65
2018-12-15T03:07:52.632Z,17.64
2018-12-15T03:08:25.832Z,17.67
2018-12-15T03:08:59.115Z,17.65
2018-12-15T03:09:32.191Z,17.65
2018-12-15T03:10:05.006Z,17.66
2018-12-15T03:10:38.010Z,17.66
2018-12-15T03:11:10.873Z,17.67
2018-12-15T03:11:43.748Z,17.67
2018-12-15T03:12:16.593Z,17.66
2018-12-15T03:12:49.244Z,17.64
2018-12-15T03:13:22.219Z,17.65
2018-12-15T03:13:55.200Z,17.64
2018-12-15T03:14:28.310Z,17.64
2018-12-15T03:15:01.244Z,17.63
2018-12-15T03:15:34.209Z,17.63
2018-12-15T03:16:07.190Z,17.63
2018-12-15T03:16:40.193Z,17.64
2018-12-15T03:17:12.964Z,17.62
2018-12-15T03:17:48.875Z,17.64
2018-12-15T03:18:20.670Z,17.64
2018-12-15T03:18:53.865Z,17.65
2018-12-15T03:19:26.918Z,17.63
2018-12-15T03:19:59.718Z,17.63
2018-12-15T03:20:32.691Z,17.64
2018-12-15T03:21:05.977Z,17.62
2018-12-15T03:21:38.849Z,17.64
2018-12-15T03:22:11.842Z,17.62
2018-12-15T03:22:44.563Z,17.64
2018-12-15T03:23:17.420Z,17.62
2018-12-15T03:23:50.365Z,17.60
2018-12-15T03:24:23.140Z,17.61
2018-12-15T03:24:56.020Z,17.64
2018-12-15T03:25:28.858Z,17.63
2018-12-15T03:26:01.946Z,17.62
2018-12-15T03:26:35.134Z,17.62
2018-12-15T03:27:08.101Z,17.63
2018-12-15T03:27:40.817Z,17.62
2018-12-15T03:28:13.770Z,17.64
2018-12-15T03:28:46.849Z,17.63
2018-12-15T03:29:19.889Z,17.62
2018-12-15T03:29:52.944Z,17.62
2018-12-15T03:30:26.242Z,17.59
2018-12-15T03:30:59.226Z,17.59
2018-12-15T03:31:34.408Z,17.59
2018-12-15T03:32:06.853Z,17.58
2018-12-15T03:32:39.777Z,17.57
2018-12-15T03:33:12.899Z,17.60
2018-12-15T03:33:46.063Z,17.62
2018-12-15T03:34:19.067Z,17.64
2018-12-15T03:34:52.039Z,17.62
2018-12-15T03:35:24.834Z,17.63
2018-12-15T03:35:57.711Z,17.63
2018-12-15T03:36:30.568Z,17.64
2018-12-15T03:37:03.553Z,17.63
2018-12-15T03:37:36.635Z,17.64
2018-12-15T03:38:09.489Z,17.63
2018-12-15T03:38:42.492Z,17.63
2018-12-15T03:39:15.459Z,17.64
2018-12-15T03:39:48.672Z,17.63
2018-12-15T03:40:21.676Z,17.62
2018-12-15T03:40:54.724Z,17.64
2018-12-15T03:41:28.048Z,17.66
2018-12-15T03:42:00.597Z,17.65
2018-12-15T03:42:33.573Z,17.61
2018-12-15T03:43:06.544Z,17.63
2018-12-15T03:43:39.261Z,17.62
2018-12-15T03:44:12.563Z,17.63
2018-12-15T03:44:45.400Z,17.61
2018-12-15T03:45:19.488Z,17.60
2018-12-15T03:45:52.657Z,17.63
2018-12-15T03:46:25.256Z,17.62
2018-12-15T03:46:58.314Z,17.62
2018-12-15T03:47:31.147Z,17.63
2018-12-15T03:48:04.147Z,17.63
2018-12-15T03:48:37.145Z,17.63
2018-12-15T03:49:11.168Z,17.62
2018-12-15T03:49:44.072Z,17.64
2018-12-15T03:50:16.994Z,17.63
2018-12-15T03:50:50.144Z,17.63
2018-12-15T03:51:23.158Z,17.60
2018-12-15T03:51:56.103Z,17.60
2018-12-15T03:52:28.862Z,17.61
2018-12-15T03:53:01.799Z,17.63
2018-12-15T03:53:34.673Z,17.63
2018-12-15T03:54:07.705Z,17.64
2018-12-15T03:54:40.702Z,17.63
2018-12-15T03:55:13.863Z,17.63
2018-12-15T03:55:46.750Z,17.61
2018-12-15T03:56:19.813Z,17.62
2018-12-15T03:56:52.976Z,17.61
2018-12-15T03:57:25.947Z,17.61
2018-12-15T03:57:59.001Z,17.61
2018-12-15T03:58:31.763Z,17.62
2018-12-15T03:59:04.772Z,17.62
2018-12-15T03:59:38.721Z,17.63
2018-12-15T04:00:11.422Z,17.62
2018-12-15T04:00:44.410Z,17.61
2018-12-15T04:01:17.360Z,17.62
2018-12-15T04:01:50.291Z,17.62
2018-12-15T04:02:23.091Z,17.63
2018-12-15T04:02:56.110Z,17.62
2018-12-15T04:03:29.070Z,17.63
2018-12-15T04:04:02.125Z,17.66
2018-12-15T04:04:35.216Z,17.63
2018-12-15T04:05:08.013Z,17.60
2018-12-15T04:05:41.369Z,17.62
2018-12-15T04:06:14.142Z,17.63
2018-12-15T04:06:46.872Z,17.61
2018-12-15T04:07:19.898Z,17.62
2018-12-15T04:07:53.009Z,17.63
2018-12-15T04:08:26.382Z,17.64
2018-12-15T04:08:59.200Z,17.65
2018-12-15T04:09:32.181Z,17.64
2018-12-15T04:10:05.097Z,17.64
2018-12-15T04:10:38.103Z,17.65
2018-12-15T04:11:11.480Z,17.66
2018-12-15T04:11:44.301Z,17.67
2018-12-15T04:12:17.158Z,17.67
2018-12-15T04:12:50.331Z,17.69
2018-12-15T04:13:23.122Z,17.73
2018-12-15T04:13:55.944Z,17.68
2018-12-15T04:14:29.023Z,17.68
2018-12-15T04:15:01.926Z,17.68
2018-12-15T04:15:34.973Z,17.69
2018-12-15T04:16:07.825Z,17.69
2018-12-15T04:16:40.627Z,17.68
2018-12-15T04:17:13.692Z,17.67
2018-12-15T04:17:46.525Z,17.70
2018-12-15T04:18:19.471Z,17.74
2018-12-15T04:18:52.575Z,17.69
2018-12-15T04:19:25.625Z,17.71
2018-12-15T04:19:58.653Z,17.70
2018-12-15T04:20:31.492Z,17.68
2018-12-15T04:21:04.543Z,17.67
2018-12-15T04:21:37.223Z,17.67
2018-12-15T04:22:09.964Z,17.68
2018-12-15T04:22:42.902Z,17.67
2018-12-15T04:23:15.692Z,17.68
2018-12-15T04:23:48.528Z,17.69
2018-12-15T04:24:21.079Z,17.66
2018-12-15T04:24:53.853Z,17.65
2018-12-15T04:25:26.552Z,17.66
2018-12-15T04:25:59.399Z,17.65
2018-12-15T04:26:32.397Z,17.63
2018-12-15T04:27:05.581Z,17.66
2018-12-15T04:27:38.834Z,17.65
2018-12-15T04:28:11.817Z,17.62
2018-12-15T04:28:44.812Z,17.65
2018-12-15T04:29:17.593Z,17.63
2018-12-15T04:29:51.033Z,17.66
2018-12-15T04:30:23.840Z,17.65
2018-12-15T04:30:56.602Z,17.66
2018-12-15T04:31:29.633Z,17.63
2018-12-15T04:32:02.554Z,17.64
2018-12-15T04:32:35.856Z,17.66
2018-12-15T04:33:09.605Z,17.68
2018-12-15T04:33:42.324Z,17.68
2018-12-15T04:34:15.123Z,17.65
2018-12-15T04:34:47.981Z,17.67
2018-12-15T04:35:21.126Z,17.69
2018-12-15T04:35:53.987Z,17.68
2018-12-15T04:36:27.018Z,17.69
2018-12-15T04:37:00.081Z,17.70
2018-12-15T04:37:32.985Z,17.70
2018-12-15T04:38:06.164Z,17.71
2018-12-15T04:38:38.603Z,17.70
2018-12-15T04:39:11.368Z,17.70
2018-12-15T04:39:44.462Z,17.75
2018-12-15T04:40:17.833Z,17.71
2018-12-15T04:40:51.132Z,17.68
2018-12-15T04:41:23.959Z,17.67
2018-12-15T04:41:57.027Z,17.69
2018-12-15T04:42:29.737Z,17.71
2018-12-15T04:43:03.355Z,17.71
2018-12-15T04:43:36.341Z,17.69
2018-12-15T04:44:09.142Z,17.68
2018-12-15T04:44:42.216Z,17.68
2018-12-15T04:45:14.875Z,17.66
2018-12-15T04:45:48.081Z,17.65
2018-12-15T04:46:21.140Z,17.65
2018-12-15T04:46:53.920Z,17.67
2018-12-15T04:47:26.982Z,17.67
2018-12-15T04:48:00.122Z,17.67
2018-12-15T04:48:33.101Z,17.65
2018-12-15T04:49:06.332Z,17.67
2018-12-15T04:49:39.241Z,17.68
2018-12-15T04:50:12.200Z,17.68
2018-12-15T04:50:45.185Z,17.72
2018-12-15T04:51:18.060Z,17.71
2018-12-15T04:51:50.844Z,17.71
2018-12-15T04:52:23.529Z,17.69
2018-12-15T04:52:56.186Z,17.69
2018-12-15T04:53:29.166Z,17.72
2018-12-15T04:54:01.917Z,17.71
2018-12-15T04:54:34.735Z,17.69
2018-12-15T04:55:08.041Z,17.68
2018-12-15T04:55:41.252Z,17.69
2018-12-15T04:56:14.454Z,17.69
2018-12-15T04:56:47.398Z,17.70
2018-12-15T04:57:20.541Z,17.70
2018-12-15T04:57:53.714Z,17.68
2018-12-15T04:58:26.720Z,17.68
2018-12-15T04:58:59.775Z,17.68
2018-12-15T04:59:32.835Z,17.68
2018-12-15T05:00:05.839Z,17.68
2018-12-15T05:00:38.799Z,17.70
2018-12-15T05:01:11.735Z,17.69
2018-12-15T05:01:44.891Z,17.68
2018-12-15T05:02:18.124Z,17.67
2018-12-15T05:02:50.970Z,17.67
2018-12-15T05:03:24.132Z,17.69
2018-12-15T05:03:56.909Z,17.67
2018-12-15T05:04:30.051Z,17.69
2018-12-15T05:05:02.899Z,17.71
2018-12-15T05:05:35.930Z,17.70
2018-12-15T05:06:08.608Z,17.70
2018-12-15T05:06:41.640Z,17.71
2018-12-15T05:07:14.455Z,17.71
2018-12-15T05:07:47.400Z,17.70
2018-12-15T05:08:20.328Z,17.73
2018-12-15T05:08:53.293Z,17.75
2018-12-15T05:09:26.651Z,17.73
2018-12-15T05:09:59.388Z,17.71
2018-12-15T05:10:32.489Z,17.70
2018-12-15T05:11:05.163Z,17.72
2018-12-15T05:11:37.992Z,17.71
2018-12-15T05:12:10.893Z,17.72
2018-12-15T05:12:43.771Z,17.70
2018-12-15T05:13:16.709Z,17.70
2018-12-15T05:13:49.760Z,17.74
2018-12-15T05:14:23.181Z,17.75
2018-12-15T05:14:55.970Z,17.74
2018-12-15T05:15:28.698Z,17.75
2018-12-15T05:16:02.008Z,17.76
2018-12-15T05:16:35.035Z,17.74
2018-12-15T05:17:08.248Z,17.73
2018-12-15T05:17:41.208Z,17.73
2018-12-15T05:18:18.125Z,17.73
2018-12-15T05:18:49.318Z,17.75
2018-12-15T05:19:22.285Z,17.75
2018-12-15T05:19:55.109Z,17.74
2018-12-15T05:20:28.079Z,17.75
2018-12-15T05:21:01.038Z,17.75
2018-12-15T05:21:34.203Z,17.76
2018-12-15T05:22:06.878Z,17.77
2018-12-15T05:22:39.821Z,17.74
2018-12-15T05:23:13.059Z,17.73
2018-12-15T05:23:45.807Z,17.74
2018-12-15T05:24:18.872Z,17.73
2018-12-15T05:24:51.792Z,17.73
2018-12-15T05:25:24.524Z,17.71
2018-12-15T05:25:57.409Z,17.72
2018-12-15T05:26:30.919Z,17.72
2018-12-15T05:27:03.907Z,17.71
2018-12-15T05:27:36.623Z,17.73
2018-12-15T05:28:10.268Z,17.74
2018-12-15T05:28:43.137Z,17.71
2018-12-15T05:29:16.099Z,17.72
2018-12-15T05:29:49.207Z,17.70
2018-12-15T05:30:22.318Z,17.71
2018-12-15T05:30:55.232Z,17.71
2018-12-15T05:31:27.978Z,17.74
2018-12-15T05:32:00.882Z,17.76
2018-12-15T05:32:33.577Z,17.79
2018-12-15T05:33:06.577Z,17.77
2018-12-15T05:33:39.719Z,17.75
2018-12-15T05:34:12.597Z,17.72
2018-12-15T05:34:45.639Z,17.71
2018-12-15T05:35:18.561Z,17.74
2018-12-15T05:35:51.757Z,17.76
2018-12-15T05:36:24.619Z,17.73
2018-12-15T05:36:57.668Z,17.74
2018-12-15T05:37:30.631Z,17.76
2018-12-15T05:38:04.037Z,17.74
2018-12-15T05:38:37.259Z,17.76
2018-12-15T05:39:10.448Z,17.78
2018-12-15T05:39:43.056Z,17.81
2018-12-15T05:40:16.305Z,17.80
2018-12-15T05:40:49.292Z,17.78
2018-12-15T05:41:22.455Z,17.76
2018-12-15T05:41:55.404Z,17.75
2018-12-15T05:42:28.887Z,17.73
2018-12-15T05:43:01.835Z,17.73
2018-12-15T05:43:34.557Z,17.74
2018-12-15T05:44:07.484Z,17.71
2018-12-15T05:44:40.399Z,17.71
2018-12-15T05:45:13.531Z,17.71
2018-12-15T05:45:47.020Z,17.76
2018-12-15T05:46:19.826Z,17.77
2018-12-15T05:46:52.691Z,17.80
2018-12-15T05:47:25.360Z,17.79
2018-12-15T05:47:58.464Z,17.80
2018-12-15T05:48:31.322Z,17.80
2018-12-15T05:49:04.228Z,17.79
2018-12-15T05:49:37.554Z,17.75
2018-12-15T05:50:10.608Z,17.75
2018-12-15T05:50:44.656Z,17.75
2018-12-15T05:51:18.660Z,17.79
2018-12-15T05:51:51.316Z,17.76
2018-12-15T05:52:23.823Z,17.76
2018-12-15T05:52:56.666Z,17.79
2018-12-15T05:53:29.532Z,17.78
2018-12-15T05:54:02.373Z,17.76
2018-12-15T05:54:35.467Z,17.73
2018-12-15T05:55:08.146Z,17.72
2018-12-15T05:55:41.219Z,17.76
2018-12-15T05:56:14.123Z,17.79
2018-12-15T05:56:46.797Z,17.78
2018-12-15T05:57:19.510Z,17.77
2018-12-15T05:57:52.287Z,17.78
2018-12-15T05:58:25.342Z,17.77
2018-12-15T05:58:58.461Z,17.77
2018-12-15T05:59:31.481Z,17.75
2018-12-15T06:00:04.357Z,17.71
2018-12-15T06:00:37.419Z,17.73
2018-12-15T06:01:10.397Z,17.74
2018-12-15T06:01:43.299Z,17.75
2018-12-15T06:02:16.229Z,17.75
2018-12-15T06:02:49.419Z,17.74
2018-12-15T06:03:22.339Z,17.76
2018-12-15T06:03:55.550Z,17.76
2018-12-15T06:04:28.551Z,17.77
2018-12-15T06:05:01.111Z,17.79
2018-12-15T06:05:34.051Z,17.80
2018-12-15T06:06:07.111Z,17.80
2018-12-15T06:06:40.004Z,17.82
2018-12-15T06:07:13.003Z,17.82
2018-12-15T06:07:46.194Z,17.82
2018-12-15T06:08:18.839Z,17.82
2018-12-15T06:08:51.509Z,17.80
2018-12-15T06:09:24.377Z,17.80
2018-12-15T06:09:57.261Z,17.80
2018-12-15T06:10:30.250Z,17.80
2018-12-15T06:11:03.303Z,17.81
2018-12-15T06:11:36.206Z,17.78
2018-12-15T06:12:09.489Z,17.79
2018-12-15T06:12:42.476Z,17.79
2018-12-15T06:13:15.241Z,17.78
2018-12-15T06:13:48.360Z,17.81
2018-12-15T06:14:21.277Z,17.80
2018-12-15T06:14:54.114Z,17.79
2018-12-15T06:15:27.265Z,17.79
2018-12-15T06:15:59.998Z,17.79
2018-12-15T06:16:32.831Z,17.78
2018-12-15T06:17:05.716Z,17.80
2018-12-15T06:17:38.297Z,17.81
2018-12-15T06:18:10.908Z,17.81
2018-12-15T06:18:43.889Z,17.80
2018-12-15T06:19:16.699Z,17.80
2018-12-15T06:19:49.719Z,17.78
2018-12-15T06:20:23.038Z,17.78
2018-12-15T06:20:55.820Z,17.79
2018-12-15T06:21:29.101Z,17.80
2018-12-15T06:22:01.924Z,17.78
2018-12-15T06:22:34.918Z,17.80
2018-12-15T06:23:07.676Z,17.77
2018-12-15T06:23:40.475Z,17.77
2018-12-15T06:24:14.124Z,17.78
2018-12-15T06:24:46.885Z,17.77
2018-12-15T06:25:19.756Z,17.75
2018-12-15T06:25:52.669Z,17.79
2018-12-15T06:26:25.467Z,17.76
2018-12-15T06:26:58.388Z,17.76
2018-12-15T06:27:31.622Z,17.77
2018-12-15T06:28:04.559Z,17.79
2018-12-15T06:28:37.259Z,17.76
2018-12-15T06:29:10.691Z,17.75
2018-12-15T06:29:43.275Z,17.76
2018-12-15T06:30:16.196Z,17.76
2018-12-15T06:30:49.083Z,17.77
2018-12-15T06:31:21.968Z,17.77
2018-12-15T06:31:54.743Z,17.79
2018-12-15T06:32:27.401Z,17.80
2018-12-15T06:33:00.284Z,17.80
2018-12-15T06:33:33.022Z,17.81
2018-12-15T06:34:06.226Z,17.80
2018-12-15T06:34:39.557Z,17.80
2018-12-15T06:35:13.092Z,17.75
2018-12-15T06:35:46.417Z,17.75
2018-12-15T06:36:19.149Z,17.77
2018-12-15T06:36:52.233Z,17.79
2018-12-15T06:37:25.180Z,17.78
2018-12-15T06:37:58.157Z,17.79
2018-12-15T06:38:31.212Z,17.77
2018-12-15T06:39:04.074Z,17.78
2018-12-15T06:39:37.032Z,17.75
2018-12-15T06:40:09.961Z,17.77
2018-12-15T06:40:43.062Z,17.78
2018-12-15T06:41:15.802Z,17.79
2018-12-15T06:41:48.777Z,17.77
2018-12-15T06:42:21.814Z,17.78
2018-12-15T06:42:54.783Z,17.78
2018-12-15T06:43:27.564Z,17.79
2018-12-15T06:44:00.649Z,17.81
2018-12-15T06:44:33.818Z,17.82
2018-12-15T06:45:06.737Z,17.81
2018-12-15T06:45:39.613Z,17.80
2018-12-15T06:46:12.386Z,17.80
2018-12-15T06:46:45.378Z,17.82
2018-12-15T06:47:18.287Z,17.82
2018-12-15T06:47:51.100Z,17.82
2018-12-15T06:48:23.632Z,17.81
2018-12-15T06:48:56.446Z,17.80
2018-12-15T06:49:29.402Z,17.78
2018-12-15T06:50:02.383Z,17.78
2018-12-15T06:50:35.194Z,17.76
2018-12-15T06:51:08.633Z,17.74
2018-12-15T06:51:41.449Z,17.74
2018-12-15T06:52:14.397Z,17.72
2018-12-15T06:52:47.184Z,17.72
2018-12-15T06:53:20.162Z,17.71
2018-12-15T06:53:53.574Z,17.70
2018-12-15T06:54:26.494Z,17.70
2018-12-15T06:54:59.250Z,17.73
2018-12-15T06:55:31.972Z,17.74
2018-12-15T06:56:04.859Z,17.75
2018-12-15T06:56:37.810Z,17.75
2018-12-15T06:57:10.813Z,17.73
2018-12-15T06:57:43.768Z,17.70
2018-12-15T06:58:16.698Z,17.67
2018-12-15T06:58:49.634Z,17.69
2018-12-15T06:59:22.403Z,17.71
2018-12-15T06:59:55.574Z,17.72
2018-12-15T07:00:28.624Z,17.76
2018-12-15T07:01:01.505Z,17.73
2018-12-15T07:01:34.262Z,17.74
2018-12-15T07:02:07.333Z,17.73
2018-12-15T07:02:40.653Z,17.73
2018-12-15T07:03:13.828Z,17.74
2018-12-15T07:03:45.958Z,17.75
2018-12-15T07:04:18.221Z,17.72
2018-12-15T07:04:50.974Z,17.74
2018-12-15T07:05:24.552Z,17.74